sensor_id;sensor_type;location;lat;lon;timestamp;temperature;humidity
27266;DHT22;14766;51.380;13.762;2024-02-21T00:01:59;11.20;65.20
27266;DHT22;14766;51.380;13.762;2024-02-21T00:04:26;11.20;65.30
27266;DHT22;14766;51.380;13.762;2024-02-21T00:06:53;11.10;65.30
27266;DHT22;14766;51.380;13.762;2024-02-21T00:09:21;11.20;65.40
27266;DHT22;14766;51.380;13.762;2024-02-21T00:11:48;11.20;65.40
27266;DHT22;14766;51.380;13.762;2024-02-21T00:14:15;11.10;65.30
27266;DHT22;14766;51.380;13.762;2024-02-21T00:16:43;11.10;65.40
27266;DHT22;14766;51.380;13.762;2024-02-21T00:19:10;11.10;65.30
27266;DHT22;14766;51.380;13.762;2024-02-21T00:21:37;11.10;65.30
27266;DHT22;14766;51.380;13.762;2024-02-21T00:24:04;11.10;65.30
27266;DHT22;14766;51.380;13.762;2024-02-21T00:26:32;11.10;65.30
27266;DHT22;14766;51.380;13.762;2024-02-21T00:29:00;11.10;65.40
27266;DHT22;14766;51.380;13.762;2024-02-21T00:31:27;11.10;65.40
27266;DHT22;14766;51.380;13.762;2024-02-21T00:33:54;11.10;65.40
27266;DHT22;14766;51.380;13.762;2024-02-21T00:36:21;11.10;65.30
27266;DHT22;14766;51.380;13.762;2024-02-21T00:38:48;11.10;65.40
27266;DHT22;14766;51.380;13.762;2024-02-21T00:41:15;11.10;65.30
27266;DHT22;14766;51.380;13.762;2024-02-21T00:43:42;11.10;65.30
27266;DHT22;14766;51.380;13.762;2024-02-21T00:46:09;11.10;65.40
27266;DHT22;14766;51.380;13.762;2024-02-21T00:48:36;11.20;65.40
27266;DHT22;14766;51.380;13.762;2024-02-21T00:51:04;11.20;65.40
27266;DHT22;14766;51.380;13.762;2024-02-21T00:53:30;11.20;65.30
27266;DHT22;14766;51.380;13.762;2024-02-21T00:55:57;11.20;66.10
27266;DHT22;14766;51.380;13.762;2024-02-21T00:58:24;11.20;65.30
27266;DHT22;14766;51.380;13.762;2024-02-21T01:00:52;11.20;65.00
27266;DHT22;14766;51.380;13.762;2024-02-21T01:03:20;11.20;64.90
27266;DHT22;14766;51.380;13.762;2024-02-21T01:05:47;11.20;64.90
27266;DHT22;14766;51.380;13.762;2024-02-21T01:08:14;11.20;64.90
27266;DHT22;14766;51.380;13.762;2024-02-21T01:10:41;11.20;64.80
27266;DHT22;14766;51.380;13.762;2024-02-21T01:13:08;11.20;64.80
27266;DHT22;14766;51.380;13.762;2024-02-21T01:15:35;11.20;64.40
27266;DHT22;14766;51.380;13.762;2024-02-21T01:18:03;11.20;64.60
27266;DHT22;14766;51.380;13.762;2024-02-21T01:20:32;11.20;64.70
27266;DHT22;14766;51.380;13.762;2024-02-21T01:22:59;11.20;64.50
27266;DHT22;14766;51.380;13.762;2024-02-21T01:25:26;11.20;64.60
27266;DHT22;14766;51.380;13.762;2024-02-21T01:27:53;11.20;64.70
27266;DHT22;14766;51.380;13.762;2024-02-21T01:30:20;11.20;64.70
27266;DHT22;14766;51.380;13.762;2024-02-21T01:32:47;11.20;64.50
27266;DHT22;14766;51.380;13.762;2024-02-21T01:35:14;11.20;64.60
27266;DHT22;14766;51.380;13.762;2024-02-21T01:37:41;11.20;64.60
27266;DHT22;14766;51.380;13.762;2024-02-21T01:40:09;11.20;64.50
27266;DHT22;14766;51.380;13.762;2024-02-21T01:42:39;11.20;64.60
27266;DHT22;14766;51.380;13.762;2024-02-21T01:45:10;11.20;64.60
27266;DHT22;14766;51.380;13.762;2024-02-21T01:47:37;11.20;64.70
27266;DHT22;14766;51.380;13.762;2024-02-21T01:50:05;11.20;64.70
27266;DHT22;14766;51.380;13.762;2024-02-21T01:52:33;11.20;64.70
27266;DHT22;14766;51.380;13.762;2024-02-21T01:55:02;11.20;64.60
27266;DHT22;14766;51.380;13.762;2024-02-21T01:57:29;11.10;64.60
27266;DHT22;14766;51.380;13.762;2024-02-21T01:59:56;11.20;64.80
27266;DHT22;14766;51.380;13.762;2024-02-21T02:02:24;11.20;64.90
27266;DHT22;14766;51.380;13.762;2024-02-21T02:04:51;11.10;64.80
27266;DHT22;14766;51.380;13.762;2024-02-21T02:07:19;11.20;64.80
27266;DHT22;14766;51.380;13.762;2024-02-21T02:09:46;11.10;64.80
27266;DHT22;14766;51.380;13.762;2024-02-21T02:12:13;11.10;64.80
27266;DHT22;14766;51.380;13.762;2024-02-21T02:14:40;11.10;64.80
27266;DHT22;14766;51.380;13.762;2024-02-21T02:17:07;11.10;64.90
27266;DHT22;14766;51.380;13.762;2024-02-21T02:19:36;11.10;65.00
27266;DHT22;14766;51.380;13.762;2024-02-21T02:22:09;11.10;65.00
27266;DHT22;14766;51.380;13.762;2024-02-21T02:24:40;11.10;65.00
27266;DHT22;14766;51.380;13.762;2024-02-21T02:27:08;11.10;65.00
27266;DHT22;14766;51.380;13.762;2024-02-21T02:29:35;11.10;65.20
27266;DHT22;14766;51.380;13.762;2024-02-21T02:32:02;11.10;64.90
27266;DHT22;14766;51.380;13.762;2024-02-21T02:34:29;11.10;65.00
27266;DHT22;14766;51.380;13.762;2024-02-21T02:36:57;11.10;65.10
27266;DHT22;14766;51.380;13.762;2024-02-21T02:39:24;11.10;65.10
27266;DHT22;14766;51.380;13.762;2024-02-21T02:41:51;11.10;65.00
27266;DHT22;14766;51.380;13.762;2024-02-21T02:44:18;11.10;65.10
27266;DHT22;14766;51.380;13.762;2024-02-21T02:46:45;11.10;65.00
27266;DHT22;14766;51.380;13.762;2024-02-21T02:49:13;11.10;65.10
27266;DHT22;14766;51.380;13.762;2024-02-21T02:51:43;11.10;64.90
27266;DHT22;14766;51.380;13.762;2024-02-21T02:54:11;11.10;65.00
27266;DHT22;14766;51.380;13.762;2024-02-21T02:56:38;11.10;65.10
27266;DHT22;14766;51.380;13.762;2024-02-21T02:59:06;11.10;65.10
27266;DHT22;14766;51.380;13.762;2024-02-21T03:01:36;11.10;65.00
27266;DHT22;14766;51.380;13.762;2024-02-21T03:04:03;11.10;65.00
27266;DHT22;14766;51.380;13.762;2024-02-21T03:06:30;11.10;65.10
27266;DHT22;14766;51.380;13.762;2024-02-21T03:08:57;11.10;65.10
27266;DHT22;14766;51.380;13.762;2024-02-21T03:11:24;11.20;65.20
27266;DHT22;14766;51.380;13.762;2024-02-21T03:13:57;11.20;65.10
27266;DHT22;14766;51.380;13.762;2024-02-21T03:16:25;11.20;65.20
27266;DHT22;14766;51.380;13.762;2024-02-21T03:18:52;11.20;65.20
27266;DHT22;14766;51.380;13.762;2024-02-21T03:21:19;11.20;65.10
27266;DHT22;14766;51.380;13.762;2024-02-21T03:23:46;11.20;65.00
27266;DHT22;14766;51.380;13.762;2024-02-21T03:26:13;11.20;64.90
27266;DHT22;14766;51.380;13.762;2024-02-21T03:28:44;11.20;65.00
27266;DHT22;14766;51.380;13.762;2024-02-21T03:31:15;11.10;65.10
27266;DHT22;14766;51.380;13.762;2024-02-21T03:33:42;11.10;65.10
27266;DHT22;14766;51.380;13.762;2024-02-21T03:36:14;11.10;65.20
27266;DHT22;14766;51.380;13.762;2024-02-21T03:38:42;11.10;65.60
27266;DHT22;14766;51.380;13.762;2024-02-21T03:41:09;11.10;66.20
27266;DHT22;14766;51.380;13.762;2024-02-21T03:43:38;11.10;66.70
27266;DHT22;14766;51.380;13.762;2024-02-21T03:46:06;11.10;67.00
27266;DHT22;14766;51.380;13.762;2024-02-21T03:48:33;11.10;67.40
27266;DHT22;14766;51.380;13.762;2024-02-21T03:51:00;11.00;67.60
27266;DHT22;14766;51.380;13.762;2024-02-21T03:53:27;11.00;67.80
27266;DHT22;14766;51.380;13.762;2024-02-21T03:55:55;11.00;67.90
27266;DHT22;14766;51.380;13.762;2024-02-21T03:58:23;11.00;68.10
27266;DHT22;14766;51.380;13.762;2024-02-21T04:00:50;11.00;68.30
27266;DHT22;14766;51.380;13.762;2024-02-21T04:03:17;10.90;68.30
27266;DHT22;14766;51.380;13.762;2024-02-21T04:05:44;10.90;68.40
27266;DHT22;14766;51.380;13.762;2024-02-21T04:08:11;10.90;68.40
27266;DHT22;14766;51.380;13.762;2024-02-21T04:10:38;10.90;68.40
27266;DHT22;14766;51.380;13.762;2024-02-21T04:13:06;10.90;68.70
27266;DHT22;14766;51.380;13.762;2024-02-21T04:15:33;10.90;68.60
27266;DHT22;14766;51.380;13.762;2024-02-21T04:18:01;10.90;68.60
27266;DHT22;14766;51.380;13.762;2024-02-21T04:20:28;10.90;68.60
27266;DHT22;14766;51.380;13.762;2024-02-21T04:22:56;10.90;68.50
27266;DHT22;14766;51.380;13.762;2024-02-21T04:25:23;10.90;68.40
27266;DHT22;14766;51.380;13.762;2024-02-21T04:27:51;10.90;68.30
27266;DHT22;14766;51.380;13.762;2024-02-21T04:30:18;10.90;68.40
27266;DHT22;14766;51.380;13.762;2024-02-21T04:32:45;10.90;68.40
27266;DHT22;14766;51.380;13.762;2024-02-21T04:35:12;10.90;68.10
27266;DHT22;14766;51.380;13.762;2024-02-21T04:37:39;10.90;68.10
27266;DHT22;14766;51.380;13.762;2024-02-21T04:40:09;10.90;68.10
27266;DHT22;14766;51.380;13.762;2024-02-21T04:42:36;10.90;68.00
27266;DHT22;14766;51.380;13.762;2024-02-21T04:45:04;10.90;68.00
27266;DHT22;14766;51.380;13.762;2024-02-21T04:47:31;10.90;67.90
27266;DHT22;14766;51.380;13.762;2024-02-21T04:49:58;10.90;67.80
27266;DHT22;14766;51.380;13.762;2024-02-21T04:52:25;10.90;67.90
27266;DHT22;14766;51.380;13.762;2024-02-21T04:54:52;10.90;67.80
27266;DHT22;14766;51.380;13.762;2024-02-21T04:57:19;10.90;67.80
27266;DHT22;14766;51.380;13.762;2024-02-21T04:59:47;10.90;67.70
27266;DHT22;14766;51.380;13.762;2024-02-21T05:02:17;10.80;67.70
27266;DHT22;14766;51.380;13.762;2024-02-21T05:04:46;10.80;67.50
27266;DHT22;14766;51.380;13.762;2024-02-21T05:07:14;10.80;67.60
27266;DHT22;14766;51.380;13.762;2024-02-21T05:09:42;10.80;67.50
27266;DHT22;14766;51.380;13.762;2024-02-21T05:12:09;10.80;67.60
27266;DHT22;14766;51.380;13.762;2024-02-21T05:14:38;10.80;67.70
27266;DHT22;14766;51.380;13.762;2024-02-21T05:17:06;10.80;67.60
27266;DHT22;14766;51.380;13.762;2024-02-21T05:19:34;10.80;67.70
27266;DHT22;14766;51.380;13.762;2024-02-21T05:22:01;10.80;67.80
27266;DHT22;14766;51.380;13.762;2024-02-21T05:24:28;10.80;67.70
27266;DHT22;14766;51.380;13.762;2024-02-21T05:26:56;10.80;67.70
27266;DHT22;14766;51.380;13.762;2024-02-21T05:29:23;10.80;67.70
27266;DHT22;14766;51.380;13.762;2024-02-21T05:34:22;10.80;67.50
27266;DHT22;14766;51.380;13.762;2024-02-21T05:36:50;10.80;67.70
27266;DHT22;14766;51.380;13.762;2024-02-21T05:39:17;10.80;67.50
27266;DHT22;14766;51.380;13.762;2024-02-21T05:41:45;10.80;67.70
27266;DHT22;14766;51.380;13.762;2024-02-21T05:44:12;10.80;67.80
27266;DHT22;14766;51.380;13.762;2024-02-21T05:46:40;10.80;67.70
27266;DHT22;14766;51.380;13.762;2024-02-21T05:49:07;10.80;67.70
27266;DHT22;14766;51.380;13.762;2024-02-21T05:51:34;10.80;67.90
27266;DHT22;14766;51.380;13.762;2024-02-21T05:54:02;10.70;67.70
27266;DHT22;14766;51.380;13.762;2024-02-21T05:56:29;10.80;67.90
27266;DHT22;14766;51.380;13.762;2024-02-21T05:58:56;10.80;68.00
27266;DHT22;14766;51.380;13.762;2024-02-21T06:01:24;10.80;68.10
27266;DHT22;14766;51.380;13.762;2024-02-21T06:03:53;10.80;68.10
27266;DHT22;14766;51.380;13.762;2024-02-21T06:06:22;10.70;68.20
27266;DHT22;14766;51.380;13.762;2024-02-21T06:08:50;10.70;68.20
27266;DHT22;14766;51.380;13.762;2024-02-21T06:11:17;10.70;68.30
27266;DHT22;14766;51.380;13.762;2024-02-21T06:13:44;10.80;68.40
27266;DHT22;14766;51.380;13.762;2024-02-21T06:16:11;10.80;68.40
27266;DHT22;14766;51.380;13.762;2024-02-21T06:18:38;10.80;68.30
27266;DHT22;14766;51.380;13.762;2024-02-21T06:21:05;10.80;68.30
27266;DHT22;14766;51.380;13.762;2024-02-21T06:23:32;10.70;68.30
27266;DHT22;14766;51.380;13.762;2024-02-21T06:25:59;10.80;68.40
27266;DHT22;14766;51.380;13.762;2024-02-21T06:28:29;10.80;68.40
27266;DHT22;14766;51.380;13.762;2024-02-21T06:30:57;10.80;68.30
27266;DHT22;14766;51.380;13.762;2024-02-21T06:33:25;10.80;68.40
27266;DHT22;14766;51.380;13.762;2024-02-21T06:35:53;10.80;68.40
27266;DHT22;14766;51.380;13.762;2024-02-21T06:38:20;10.80;68.40
27266;DHT22;14766;51.380;13.762;2024-02-21T06:40:47;10.80;68.50
27266;DHT22;14766;51.380;13.762;2024-02-21T06:43:18;10.80;68.60
27266;DHT22;14766;51.380;13.762;2024-02-21T06:45:46;10.80;68.60
27266;DHT22;14766;51.380;13.762;2024-02-21T06:48:18;10.80;68.60
27266;DHT22;14766;51.380;13.762;2024-02-21T06:50:46;10.80;68.70
27266;DHT22;14766;51.380;13.762;2024-02-21T06:53:13;10.80;68.70
27266;DHT22;14766;51.380;13.762;2024-02-21T06:55:41;10.80;68.70
27266;DHT22;14766;51.380;13.762;2024-02-21T06:58:08;10.90;68.80
27266;DHT22;14766;51.380;13.762;2024-02-21T07:00:39;10.90;68.80
27266;DHT22;14766;51.380;13.762;2024-02-21T07:03:07;10.90;68.70
27266;DHT22;14766;51.380;13.762;2024-02-21T07:05:34;10.90;68.70
27266;DHT22;14766;51.380;13.762;2024-02-21T07:08:02;11.00;68.80
27266;DHT22;14766;51.380;13.762;2024-02-21T07:10:30;10.90;68.80
27266;DHT22;14766;51.380;13.762;2024-02-21T07:12:58;10.90;68.80
27266;DHT22;14766;51.380;13.762;2024-02-21T07:15:25;10.90;68.90
27266;DHT22;14766;51.380;13.762;2024-02-21T07:17:53;10.90;68.90
27266;DHT22;14766;51.380;13.762;2024-02-21T07:20:21;10.90;69.00
27266;DHT22;14766;51.380;13.762;2024-02-21T07:22:48;10.90;69.10
27266;DHT22;14766;51.380;13.762;2024-02-21T07:25:15;10.90;69.10
27266;DHT22;14766;51.380;13.762;2024-02-21T07:27:44;10.90;69.20
27266;DHT22;14766;51.380;13.762;2024-02-21T07:30:11;10.90;69.30
27266;DHT22;14766;51.380;13.762;2024-02-21T07:32:42;11.00;69.30
27266;DHT22;14766;51.380;13.762;2024-02-21T07:35:10;11.00;69.20
27266;DHT22;14766;51.380;13.762;2024-02-21T07:37:40;11.00;69.10
27266;DHT22;14766;51.380;13.762;2024-02-21T07:40:13;11.00;69.00
27266;DHT22;14766;51.380;13.762;2024-02-21T07:42:41;11.00;69.00
27266;DHT22;14766;51.380;13.762;2024-02-21T07:45:08;11.00;68.90
27266;DHT22;14766;51.380;13.762;2024-02-21T07:47:37;11.00;68.80
27266;DHT22;14766;51.380;13.762;2024-02-21T07:50:04;11.10;68.80
27266;DHT22;14766;51.380;13.762;2024-02-21T07:52:32;11.10;68.70
27266;DHT22;14766;51.380;13.762;2024-02-21T07:54:59;11.10;68.80
27266;DHT22;14766;51.380;13.762;2024-02-21T07:57:27;11.10;68.90
27266;DHT22;14766;51.380;13.762;2024-02-21T07:59:55;11.10;68.90
27266;DHT22;14766;51.380;13.762;2024-02-21T08:02:22;11.10;68.80
27266;DHT22;14766;51.380;13.762;2024-02-21T08:04:50;11.10;68.60
27266;DHT22;14766;51.380;13.762;2024-02-21T08:07:17;11.10;68.70
27266;DHT22;14766;51.380;13.762;2024-02-21T08:09:44;11.10;68.60
27266;DHT22;14766;51.380;13.762;2024-02-21T08:12:12;11.20;68.60
27266;DHT22;14766;51.380;13.762;2024-02-21T08:14:40;11.20;68.50
27266;DHT22;14766;51.380;13.762;2024-02-21T08:17:07;11.10;68.30
27266;DHT22;14766;51.380;13.762;2024-02-21T08:19:34;11.20;68.50
27266;DHT22;14766;51.380;13.762;2024-02-21T08:22:01;11.20;68.40
27266;DHT22;14766;51.380;13.762;2024-02-21T08:24:28;11.20;68.50
27266;DHT22;14766;51.380;13.762;2024-02-21T08:26:55;11.10;68.20
27266;DHT22;14766;51.380;13.762;2024-02-21T08:29:22;11.20;68.40
27266;DHT22;14766;51.380;13.762;2024-02-21T08:31:49;11.10;68.10
27266;DHT22;14766;51.380;13.762;2024-02-21T08:34:17;11.20;68.00
27266;DHT22;14766;51.380;13.762;2024-02-21T08:36:44;11.20;68.00
27266;DHT22;14766;51.380;13.762;2024-02-21T08:39:12;11.20;68.20
27266;DHT22;14766;51.380;13.762;2024-02-21T08:41:43;11.20;68.10
27266;DHT22;14766;51.380;13.762;2024-02-21T08:44:23;11.20;68.10
27266;DHT22;14766;51.380;13.762;2024-02-21T08:46:54;11.10;68.10
27266;DHT22;14766;51.380;13.762;2024-02-21T08:49:22;11.20;68.20
27266;DHT22;14766;51.380;13.762;2024-02-21T08:51:50;11.20;68.20
27266;DHT22;14766;51.380;13.762;2024-02-21T08:54:17;11.20;68.80
27266;DHT22;14766;51.380;13.762;2024-02-21T08:56:44;11.20;67.80
27266;DHT22;14766;51.380;13.762;2024-02-21T08:59:12;11.20;67.80
27266;DHT22;14766;51.380;13.762;2024-02-21T09:01:41;11.10;67.90
27266;DHT22;14766;51.380;13.762;2024-02-21T09:04:09;11.20;68.10
27266;DHT22;14766;51.380;13.762;2024-02-21T09:06:36;11.20;67.90
27266;DHT22;14766;51.380;13.762;2024-02-21T09:09:06;11.20;68.00
27266;DHT22;14766;51.380;13.762;2024-02-21T09:11:35;11.20;67.90
27266;DHT22;14766;51.380;13.762;2024-02-21T09:14:02;11.20;68.00
27266;DHT22;14766;51.380;13.762;2024-02-21T09:16:31;11.30;68.10
27266;DHT22;14766;51.380;13.762;2024-02-21T09:18:59;11.30;67.90
27266;DHT22;14766;51.380;13.762;2024-02-21T09:21:28;11.30;67.90
27266;DHT22;14766;51.380;13.762;2024-02-21T09:23:57;11.30;67.90
27266;DHT22;14766;51.380;13.762;2024-02-21T09:26:26;11.40;67.90
27266;DHT22;14766;51.380;13.762;2024-02-21T09:28:53;11.40;68.20
27266;DHT22;14766;51.380;13.762;2024-02-21T09:31:21;11.40;67.90
27266;DHT22;14766;51.380;13.762;2024-02-21T09:33:49;11.40;67.90
27266;DHT22;14766;51.380;13.762;2024-02-21T09:36:16;11.50;68.10
27266;DHT22;14766;51.380;13.762;2024-02-21T09:38:43;11.60;68.20
27266;DHT22;14766;51.380;13.762;2024-02-21T09:41:17;11.60;67.80
27266;DHT22;14766;51.380;13.762;2024-02-21T09:43:51;11.60;67.50
27266;DHT22;14766;51.380;13.762;2024-02-21T09:46:42;11.70;67.30
27266;DHT22;14766;51.380;13.762;2024-02-21T09:49:44;11.70;67.60
27266;DHT22;14766;51.380;13.762;2024-02-21T09:52:12;11.80;67.40
27266;DHT22;14766;51.380;13.762;2024-02-21T09:54:41;11.80;67.40
27266;DHT22;14766;51.380;13.762;2024-02-21T09:57:11;11.90;67.40
27266;DHT22;14766;51.380;13.762;2024-02-21T09:59:39;11.90;67.20
27266;DHT22;14766;51.380;13.762;2024-02-21T10:02:08;11.90;66.70
27266;DHT22;14766;51.380;13.762;2024-02-21T10:04:36;11.90;66.50
27266;DHT22;14766;51.380;13.762;2024-02-21T10:07:03;12.00;66.80
27266;DHT22;14766;51.380;13.762;2024-02-21T10:09:31;12.00;66.70
27266;DHT22;14766;51.380;13.762;2024-02-21T10:12:11;12.00;66.60
27266;DHT22;14766;51.380;13.762;2024-02-21T10:14:40;12.00;66.30
27266;DHT22;14766;51.380;13.762;2024-02-21T10:17:08;12.00;66.30
27266;DHT22;14766;51.380;13.762;2024-02-21T10:19:38;12.00;67.00
27266;DHT22;14766;51.380;13.762;2024-02-21T10:22:08;12.00;66.50
27266;DHT22;14766;51.380;13.762;2024-02-21T10:24:38;12.00;66.30
27266;DHT22;14766;51.380;13.762;2024-02-21T10:27:09;12.00;66.40
27266;DHT22;14766;51.380;13.762;2024-02-21T10:29:39;12.10;66.50
27266;DHT22;14766;51.380;13.762;2024-02-21T10:32:10;12.10;66.60
27266;DHT22;14766;51.380;13.762;2024-02-21T10:34:40;12.10;66.30
27266;DHT22;14766;51.380;13.762;2024-02-21T10:37:11;12.20;66.00
27266;DHT22;14766;51.380;13.762;2024-02-21T10:39:40;12.20;66.20
27266;DHT22;14766;51.380;13.762;2024-02-21T10:42:10;12.30;66.60
27266;DHT22;14766;51.380;13.762;2024-02-21T10:44:39;12.30;66.20
27266;DHT22;14766;51.380;13.762;2024-02-21T10:47:11;12.40;65.40
27266;DHT22;14766;51.380;13.762;2024-02-21T10:49:41;12.40;65.80
27266;DHT22;14766;51.380;13.762;2024-02-21T10:55:03;12.60;65.50
27266;DHT22;14766;51.380;13.762;2024-02-21T10:57:34;12.70;65.20
27266;DHT22;14766;51.380;13.762;2024-02-21T11:00:03;12.80;64.40
27266;DHT22;14766;51.380;13.762;2024-02-21T11:02:35;12.80;63.70
27266;DHT22;14766;51.380;13.762;2024-02-21T11:05:03;12.90;64.00
27266;DHT22;14766;51.380;13.762;2024-02-21T11:07:35;12.90;63.50
27266;DHT22;14766;51.380;13.762;2024-02-21T11:10:03;12.90;63.40
27266;DHT22;14766;51.380;13.762;2024-02-21T11:12:33;12.90;63.20
27266;DHT22;14766;51.380;13.762;2024-02-21T11:15:07;13.00;63.50
27266;DHT22;14766;51.380;13.762;2024-02-21T11:17:34;13.00;63.30
27266;DHT22;14766;51.380;13.762;2024-02-21T11:20:16;13.00;63.00
27266;DHT22;14766;51.380;13.762;2024-02-21T11:22:43;13.00;62.80
27266;DHT22;14766;51.380;13.762;2024-02-21T11:25:11;12.90;63.40
27266;DHT22;14766;51.380;13.762;2024-02-21T11:27:47;12.90;63.50
27266;DHT22;14766;51.380;13.762;2024-02-21T11:30:14;13.00;63.60
27266;DHT22;14766;51.380;13.762;2024-02-21T11:32:43;13.00;63.70
27266;DHT22;14766;51.380;13.762;2024-02-21T11:35:19;13.00;63.10
27266;DHT22;14766;51.380;13.762;2024-02-21T11:37:47;13.00;63.20
27266;DHT22;14766;51.380;13.762;2024-02-21T11:40:15;13.00;62.90
27266;DHT22;14766;51.380;13.762;2024-02-21T11:42:42;13.00;62.90
27266;DHT22;14766;51.380;13.762;2024-02-21T11:45:09;13.00;62.80
27266;DHT22;14766;51.380;13.762;2024-02-21T11:47:37;13.00;62.30
27266;DHT22;14766;51.380;13.762;2024-02-21T11:50:12;13.00;62.50
27266;DHT22;14766;51.380;13.762;2024-02-21T11:52:42;13.00;62.70
27266;DHT22;14766;51.380;13.762;2024-02-21T11:55:09;13.00;61.90
27266;DHT22;14766;51.380;13.762;2024-02-21T11:57:39;13.10;61.50
27266;DHT22;14766;51.380;13.762;2024-02-21T12:00:15;13.10;62.00
27266;DHT22;14766;51.380;13.762;2024-02-21T12:02:46;13.10;61.70
27266;DHT22;14766;51.380;13.762;2024-02-21T12:05:14;13.10;61.60
27266;DHT22;14766;51.380;13.762;2024-02-21T12:07:42;13.20;62.40
27266;DHT22;14766;51.380;13.762;2024-02-21T12:10:11;13.20;61.70
27266;DHT22;14766;51.380;13.762;2024-02-21T12:12:39;13.20;61.50
27266;DHT22;14766;51.380;13.762;2024-02-21T12:15:07;13.30;60.90
27266;DHT22;14766;51.380;13.762;2024-02-21T12:17:39;13.30;60.90
27266;DHT22;14766;51.380;13.762;2024-02-21T12:20:07;13.30;60.90
27266;DHT22;14766;51.380;13.762;2024-02-21T12:22:41;13.40;61.00
27266;DHT22;14766;51.380;13.762;2024-02-21T12:25:22;13.40;61.10
27266;DHT22;14766;51.380;13.762;2024-02-21T12:27:56;13.40;60.60
27266;DHT22;14766;51.380;13.762;2024-02-21T12:30:23;13.50;60.60
27266;DHT22;14766;51.380;13.762;2024-02-21T12:32:51;13.50;59.90
27266;DHT22;14766;51.380;13.762;2024-02-21T12:35:19;13.50;60.40
27266;DHT22;14766;51.380;13.762;2024-02-21T12:37:46;13.60;59.90
27266;DHT22;14766;51.380;13.762;2024-02-21T12:40:14;13.60;60.10
27266;DHT22;14766;51.380;13.762;2024-02-21T12:42:42;13.60;60.00
27266;DHT22;14766;51.380;13.762;2024-02-21T12:45:10;13.70;60.30
27266;DHT22;14766;51.380;13.762;2024-02-21T12:47:37;13.80;59.80
27266;DHT22;14766;51.380;13.762;2024-02-21T12:50:04;13.90;59.50
27266;DHT22;14766;51.380;13.762;2024-02-21T12:52:34;14.00;58.60
27266;DHT22;14766;51.380;13.762;2024-02-21T12:55:01;14.00;58.40
27266;DHT22;14766;51.380;13.762;2024-02-21T12:57:33;14.00;58.30
27266;DHT22;14766;51.380;13.762;2024-02-21T13:00:00;14.10;58.20
27266;DHT22;14766;51.380;13.762;2024-02-21T13:02:27;14.10;58.10
27266;DHT22;14766;51.380;13.762;2024-02-21T13:04:54;14.10;57.90
27266;DHT22;14766;51.380;13.762;2024-02-21T13:07:21;14.10;58.20
27266;DHT22;14766;51.380;13.762;2024-02-21T13:09:48;14.10;58.50
27266;DHT22;14766;51.380;13.762;2024-02-21T13:12:16;14.10;58.20
27266;DHT22;14766;51.380;13.762;2024-02-21T13:14:43;14.10;58.30
27266;DHT22;14766;51.380;13.762;2024-02-21T13:17:11;14.10;57.90
27266;DHT22;14766;51.380;13.762;2024-02-21T13:19:40;14.10;58.00
27266;DHT22;14766;51.380;13.762;2024-02-21T13:22:07;14.10;58.00
27266;DHT22;14766;51.380;13.762;2024-02-21T13:24:35;14.10;58.00
27266;DHT22;14766;51.380;13.762;2024-02-21T13:27:02;14.10;57.60
27266;DHT22;14766;51.380;13.762;2024-02-21T13:29:30;14.10;57.90
27266;DHT22;14766;51.380;13.762;2024-02-21T13:31:57;14.10;57.90
27266;DHT22;14766;51.380;13.762;2024-02-21T13:34:28;14.10;57.90
27266;DHT22;14766;51.380;13.762;2024-02-21T13:36:56;14.10;57.70
27266;DHT22;14766;51.380;13.762;2024-02-21T13:39:23;14.10;57.80
27266;DHT22;14766;51.380;13.762;2024-02-21T13:41:50;14.10;58.10
27266;DHT22;14766;51.380;13.762;2024-02-21T13:44:17;14.10;58.10
27266;DHT22;14766;51.380;13.762;2024-02-21T13:46:44;14.10;58.20
27266;DHT22;14766;51.380;13.762;2024-02-21T13:49:11;14.10;57.60
27266;DHT22;14766;51.380;13.762;2024-02-21T13:51:39;14.10;57.70
27266;DHT22;14766;51.380;13.762;2024-02-21T13:54:07;14.10;57.90
27266;DHT22;14766;51.380;13.762;2024-02-21T13:56:36;14.10;57.90
27266;DHT22;14766;51.380;13.762;2024-02-21T13:59:04;14.00;58.10
27266;DHT22;14766;51.380;13.762;2024-02-21T14:01:32;14.00;58.30
27266;DHT22;14766;51.380;13.762;2024-02-21T14:03:59;14.00;57.90
27266;DHT22;14766;51.380;13.762;2024-02-21T14:06:27;14.00;58.10
27266;DHT22;14766;51.380;13.762;2024-02-21T14:08:54;14.00;58.10
27266;DHT22;14766;51.380;13.762;2024-02-21T14:11:22;14.00;58.40
27266;DHT22;14766;51.380;13.762;2024-02-21T14:13:50;14.00;58.50
27266;DHT22;14766;51.380;13.762;2024-02-21T14:16:18;14.00;58.40
27266;DHT22;14766;51.380;13.762;2024-02-21T14:18:45;13.90;58.50
27266;DHT22;14766;51.380;13.762;2024-02-21T14:21:13;14.00;58.90
27266;DHT22;14766;51.380;13.762;2024-02-21T14:23:40;13.90;58.80
27266;DHT22;14766;51.380;13.762;2024-02-21T14:26:08;13.90;59.00
27266;DHT22;14766;51.380;13.762;2024-02-21T14:28:35;13.90;59.20
27266;DHT22;14766;51.380;13.762;2024-02-21T14:31:03;14.00;59.40
27266;DHT22;14766;51.380;13.762;2024-02-21T14:33:33;14.00;59.30
27266;DHT22;14766;51.380;13.762;2024-02-21T14:36:01;14.00;59.40
27266;DHT22;14766;51.380;13.762;2024-02-21T14:38:28;14.00;59.40
27266;DHT22;14766;51.380;13.762;2024-02-21T14:40:55;14.00;59.40
27266;DHT22;14766;51.380;13.762;2024-02-21T14:43:22;14.00;59.50
27266;DHT22;14766;51.380;13.762;2024-02-21T14:45:50;14.00;59.50
27266;DHT22;14766;51.380;13.762;2024-02-21T14:48:17;14.00;59.40
27266;DHT22;14766;51.380;13.762;2024-02-21T14:50:45;14.00;59.40
27266;DHT22;14766;51.380;13.762;2024-02-21T14:53:12;14.00;59.50
27266;DHT22;14766;51.380;13.762;2024-02-21T14:55:39;14.00;59.30
27266;DHT22;14766;51.380;13.762;2024-02-21T14:58:10;14.10;59.40
27266;DHT22;14766;51.380;13.762;2024-02-21T15:00:38;14.00;59.40
27266;DHT22;14766;51.380;13.762;2024-02-21T15:03:06;14.10;59.40
27266;DHT22;14766;51.380;13.762;2024-02-21T15:05:34;14.00;59.40
27266;DHT22;14766;51.380;13.762;2024-02-21T15:08:01;14.00;59.50
27266;DHT22;14766;51.380;13.762;2024-02-21T15:10:29;14.00;59.50
27266;DHT22;14766;51.380;13.762;2024-02-21T15:12:58;14.00;59.50
27266;DHT22;14766;51.380;13.762;2024-02-21T15:15:26;14.00;59.50
27266;DHT22;14766;51.380;13.762;2024-02-21T15:17:53;14.00;59.70
27266;DHT22;14766;51.380;13.762;2024-02-21T15:20:21;14.00;59.80
27266;DHT22;14766;51.380;13.762;2024-02-21T15:22:48;14.00;59.90
27266;DHT22;14766;51.380;13.762;2024-02-21T15:25:15;14.00;59.80
27266;DHT22;14766;51.380;13.762;2024-02-21T15:27:46;14.00;59.80